createdAt,value
2022-08-05T00:01:27.624Z,23.40
2022-08-05T00:03:57.061Z,23.40
2022-08-05T00:06:32.252Z,23.40
2022-08-05T00:09:00.520Z,23.30
2022-08-05T00:11:30.520Z,23.30
2022-08-05T00:14:02.369Z,23.30
2022-08-05T00:16:53.140Z,23.30
2022-08-05T00:19:25.010Z,23.30
2022-08-05T00:21:59.515Z,23.20
2022-08-05T00:24:31.175Z,23.20
2022-08-05T00:26:58.628Z,23.20
2022-08-05T00:29:26.093Z,23.20
2022-08-05T00:32:13.217Z,23.10
2022-08-05T00:35:06.037Z,23.10
2022-08-05T00:37:50.682Z,23.10
2022-08-05T00:40:17.789Z,23.10
2022-08-05T00:42:53.240Z,23.00
2022-08-05T00:45:28.171Z,23.00
2022-08-05T00:48:09.333Z,23.00
2022-08-05T00:50:36.263Z,22.90
2022-08-05T00:53:03.036Z,22.90
2022-08-05T00:55:33.942Z,22.90
2022-08-05T00:58:11.124Z,22.90
2022-08-05T01:00:38.315Z,22.90
2022-08-05T01:03:07.994Z,22.80
2022-08-05T01:05:34.765Z,22.80
2022-08-05T01:08:40.334Z,22.80
2022-08-05T01:10:52.287Z,22.80
2022-08-05T01:13:58.919Z,22.70
2022-08-05T01:16:27.527Z,22.70
2022-08-05T01:18:58.053Z,22.70
2022-08-05T01:21:38.311Z,22.70
2022-08-05T01:24:14.334Z,22.60
2022-08-05T01:26:59.108Z,22.60
2022-08-05T01:29:34.941Z,22.60
2022-08-05T01:32:03.613Z,22.60
2022-08-05T01:34:48.563Z,22.60
2022-08-05T01:37:25.105Z,22.50
2022-08-05T01:39:57.657Z,22.50
2022-08-05T01:42:26.754Z,22.50
2022-08-05T01:44:54.756Z,22.50
2022-08-05T01:47:22.128Z,22.50
2022-08-05T01:50:01.835Z,22.40
2022-08-05T01:52:29.969Z,22.40
2022-08-05T01:54:57.737Z,22.40
2022-08-05T01:58:29.945Z,22.40
2022-08-05T02:00:12.902Z,22.30
2022-08-05T02:02:46.443Z,22.30
2022-08-05T02:05:23.501Z,22.30
2022-08-05T02:08:01.342Z,22.30
2022-08-05T02:10:29.532Z,22.30
2022-08-05T02:12:57.981Z,22.20
2022-08-05T02:15:33.473Z,22.20
2022-08-05T02:18:31.341Z,22.20
2022-08-05T02:21:00.368Z,22.20
2022-08-05T02:23:30.271Z,22.10
2022-08-05T02:26:02.719Z,22.10
2022-08-05T02:28:33.071Z,22.10
2022-08-05T02:31:14.352Z,22.10
2022-08-05T02:33:44.960Z,22.10
2022-08-05T02:36:16.397Z,22.10
2022-08-05T02:38:53.438Z,22.00
2022-08-05T02:41:21.077Z,22.00
2022-08-05T02:44:06.310Z,22.00
2022-08-05T02:46:36.415Z,22.00
2022-08-05T02:49:20.207Z,22.00
2022-08-05T02:52:03.895Z,21.90
2022-08-05T02:54:35.632Z,21.90
2022-08-05T02:57:05.134Z,21.90
2022-08-05T02:59:47.846Z,21.80
2022-08-05T03:02:22.854Z,21.80
2022-08-05T03:04:53.082Z,21.80
2022-08-05T03:07:40.541Z,21.80
2022-08-05T03:10:08.183Z,21.80
2022-08-05T03:12:36.813Z,21.70
2022-08-05T03:15:04.477Z,21.70
2022-08-05T03:17:33.471Z,21.70
2022-08-05T03:20:08.667Z,21.70
2022-08-05T03:22:36.683Z,21.70
2022-08-05T03:25:33.176Z,21.60
2022-08-05T03:28:00.409Z,21.60
2022-08-05T03:30:30.129Z,21.60
2022-08-05T03:33:05.816Z,21.60
2022-08-05T03:35:33.987Z,21.50
2022-08-05T03:38:07.154Z,21.50
2022-08-05T03:40:34.125Z,21.50
2022-08-05T03:43:59.257Z,21.50
2022-08-05T03:45:57.727Z,21.50
2022-08-05T03:48:26.192Z,21.40
2022-08-05T03:50:59.190Z,21.40
2022-08-05T03:55:51.762Z,21.40
2022-08-05T03:56:46.415Z,21.40
2022-08-05T03:59:24.639Z,21.30
2022-08-05T04:01:51.788Z,21.30
2022-08-05T04:04:20.056Z,21.30
2022-08-05T04:06:51.365Z,21.30
2022-08-05T04:09:25.942Z,21.30
2022-08-05T04:11:53.845Z,21.20
2022-08-05T04:14:29.936Z,21.20
2022-08-05T04:16:57.514Z,21.20
2022-08-05T04:19:23.994Z,21.20
2022-08-05T04:22:05.736Z,21.10
2022-08-05T04:24:52.725Z,21.20
2022-08-05T04:27:19.547Z,21.10
2022-08-05T04:30:06.580Z,21.10
2022-08-05T04:32:33.589Z,21.10
2022-08-05T04:35:03.083Z,21.10
2022-08-05T04:38:02.567Z,21.10
2022-08-05T04:40:19.642Z,21.00
2022-08-05T04:42:46.391Z,21.00
2022-08-05T04:45:14.172Z,21.00
2022-08-05T04:47:49.559Z,21.00
2022-08-05T04:50:16.384Z,21.00
2022-08-05T04:53:02.826Z,21.00
2022-08-05T04:56:15.346Z,20.90
2022-08-05T04:58:17.819Z,20.90
2022-08-05T05:00:50.752Z,20.90
2022-08-05T05:03:17.449Z,20.90
2022-08-05T05:06:35.842Z,20.90
2022-08-05T05:08:35.840Z,20.90
2022-08-05T05:11:09.318Z,20.90
2022-08-05T05:13:43.137Z,20.90
2022-08-05T05:16:10.139Z,20.80
2022-08-05T05:18:38.397Z,20.90
2022-08-05T05:21:05.570Z,20.80
2022-08-05T05:24:01.705Z,20.80
2022-08-05T05:26:18.741Z,20.80
2022-08-05T05:28:45.463Z,20.80
2022-08-05T05:31:12.202Z,20.80
2022-08-05T05:33:43.383Z,20.80
2022-08-05T05:36:25.094Z,20.80
2022-08-05T05:38:55.438Z,20.80
2022-08-05T05:41:21.936Z,20.80
2022-08-05T05:43:57.360Z,20.80
2022-08-05T05:46:26.607Z,20.80
2022-08-05T05:48:53.322Z,20.80
2022-08-05T05:51:20.786Z,20.80
2022-08-05T05:53:58.166Z,20.80
2022-08-05T05:56:32.634Z,20.80
2022-08-05T05:59:05.570Z,20.80
2022-08-05T06:01:37.477Z,20.80
2022-08-05T06:04:05.675Z,20.80
2022-08-05T06:06:34.723Z,20.80
2022-08-05T06:09:03.842Z,20.80
2022-08-05T06:11:30.914Z,20.80
2022-08-05T06:13:57.391Z,20.80
2022-08-05T06:16:31.739Z,20.80
2022-08-05T06:19:01.057Z,20.90
2022-08-05T06:21:36.881Z,20.80
2022-08-05T06:24:11.911Z,20.90
2022-08-05T06:26:51.530Z,20.90
2022-08-05T06:29:42.838Z,20.90
2022-08-05T06:32:06.026Z,20.90
2022-08-05T06:34:48.356Z,21.00
2022-08-05T06:37:57.700Z,21.00
2022-08-05T06:40:06.969Z,21.10
2022-08-05T06:42:33.456Z,21.10
2022-08-05T06:44:59.917Z,21.20
2022-08-05T06:48:36.174Z,21.30
2022-08-05T06:50:18.322Z,21.30
2022-08-05T06:52:58.503Z,21.30
2022-08-05T06:55:25.478Z,21.40
2022-08-05T06:58:02.981Z,21.50
2022-08-05T07:00:41.189Z,21.70
2022-08-05T07:03:09.665Z,21.70
2022-08-05T07:05:37.523Z,21.70
2022-08-05T07:08:04.648Z,21.70
2022-08-05T07:10:32.632Z,21.70
2022-08-05T07:13:18.004Z,21.70
2022-08-05T07:17:56.637Z,21.70
2022-08-05T07:19:09.888Z,21.70
2022-08-05T07:21:59.379Z,21.60
2022-08-05T07:24:22.953Z,21.60
2022-08-05T07:26:55.124Z,21.70
2022-08-05T07:29:25.346Z,21.60
2022-08-05T07:32:08.231Z,21.60
2022-08-05T07:34:37.221Z,21.60
2022-08-05T07:37:11.440Z,21.70
2022-08-05T07:40:26.951Z,21.60
2022-08-05T07:42:31.704Z,21.60
2022-08-05T07:45:00.481Z,21.60
2022-08-05T07:47:27.093Z,21.60
2022-08-05T07:50:08.921Z,21.60
2022-08-05T07:52:43.297Z,21.60
2022-08-05T07:55:15.914Z,21.60
2022-08-05T07:58:03.028Z,21.60
2022-08-05T08:00:29.824Z,21.60
2022-08-05T08:03:14.010Z,21.60
2022-08-05T08:05:49.675Z,21.60
2022-08-05T08:08:16.769Z,21.60
2022-08-05T08:10:48.939Z,21.70
2022-08-05T08:13:16.054Z,21.80
2022-08-05T08:16:34.425Z,21.80
2022-08-05T08:18:35.268Z,21.90
2022-08-05T08:21:09.739Z,22.00
2022-08-05T08:24:03.101Z,22.10
2022-08-05T08:26:29.634Z,22.20
2022-08-05T08:28:59.801Z,22.20
2022-08-05T08:31:43.156Z,22.30
2022-08-05T08:34:10.363Z,22.50
2022-08-05T08:36:51.848Z,22.60
2022-08-05T08:39:23.541Z,22.70
2022-08-05T08:41:59.727Z,22.80
2022-08-05T08:45:24.221Z,22.90
2022-08-05T08:47:34.590Z,23.10
2022-08-05T08:50:30.567Z,23.30
2022-08-05T08:52:53.627Z,23.20
2022-08-05T08:56:01.924Z,23.30
2022-08-05T08:58:08.822Z,23.40
2022-08-05T09:00:35.469Z,23.50
2022-08-05T09:03:06.867Z,23.70
2022-08-05T09:05:39.019Z,23.80
2022-08-05T09:08:20.016Z,23.90
2022-08-05T09:10:53.302Z,24.00
2022-08-05T09:13:19.898Z,24.10
2022-08-05T09:15:50.356Z,24.30
2022-08-05T09:18:16.951Z,24.30
2022-08-05T09:20:44.511Z,24.40
2022-08-05T09:23:18.929Z,24.50
2022-08-05T09:26:01.560Z,24.70
2022-08-05T09:28:32.477Z,24.80
2022-08-05T09:31:22.615Z,24.80
2022-08-05T09:34:01.026Z,24.90
2022-08-05T09:36:54.593Z,25.00
2022-08-05T09:39:27.587Z,25.20
2022-08-05T09:42:08.517Z,25.10
2022-08-05T09:44:39.395Z,25.20
2022-08-05T09:47:15.778Z,25.30
2022-08-05T09:50:01.752Z,25.50
2022-08-05T09:52:32.913Z,25.60
2022-08-05T09:55:55.620Z,25.60
2022-08-05T09:57:58.575Z,25.70
2022-08-05T10:00:26.593Z,25.70
2022-08-05T10:02:54.817Z,25.70
2022-08-05T10:05:26.938Z,25.70
2022-08-05T10:08:36.631Z,25.90
2022-08-05T10:10:50.313Z,25.90
2022-08-05T10:13:27.278Z,26.10
2022-08-05T10:16:00.469Z,26.10
2022-08-05T10:18:31.969Z,26.10
2022-08-05T10:21:06.320Z,26.00
2022-08-05T10:23:59.706Z,26.10
2022-08-05T10:26:31.631Z,26.00
2022-08-05T10:28:59.400Z,25.90
2022-08-05T10:32:53.354Z,26.00
2022-08-05T10:34:12.466Z,26.10
2022-08-05T10:36:40.806Z,26.00
2022-08-05T10:39:10.511Z,26.20
2022-08-05T10:42:01.355Z,26.40
2022-08-05T10:44:29.383Z,26.60
2022-08-05T10:46:56.693Z,26.50
2022-08-05T10:49:27.579Z,26.60
2022-08-05T10:52:03.336Z,26.50
2022-08-05T10:54:46.994Z,26.70
2022-08-05T10:57:25.772Z,26.80
2022-08-05T11:00:19.105Z,26.90
2022-08-05T11:02:58.921Z,26.80
2022-08-05T11:06:03.842Z,26.80
2022-08-05T11:08:38.048Z,26.90
2022-08-05T11:11:52.658Z,27.20
2022-08-05T11:14:49.331Z,27.30
2022-08-05T11:17:59.654Z,27.30
2022-08-05T11:20:31.479Z,27.20
2022-08-05T11:23:01.990Z,27.10
2022-08-05T11:26:05.595Z,27.30
2022-08-05T11:28:25.018Z,27.30
2022-08-05T11:31:02.346Z,27.30
2022-08-05T11:33:46.511Z,27.40
2022-08-05T11:36:34.509Z,27.30
2022-08-05T11:39:03.703Z,27.40
2022-08-05T11:41:54.709Z,27.50
2022-08-05T11:44:40.752Z,27.30
2022-08-05T11:47:13.959Z,27.30
2022-08-05T11:49:50.974Z,27.40
2022-08-05T11:52:29.058Z,27.50
2022-08-05T11:54:57.532Z,27.50
2022-08-05T11:58:08.504Z,27.50
2022-08-05T12:00:28.828Z,27.50
2022-08-05T12:02:56.621Z,27.40
2022-08-05T12:05:36.152Z,27.60
2022-08-05T12:08:10.156Z,27.70
2022-08-05T12:10:45.925Z,27.80
2022-08-05T12:13:28.172Z,27.90
2022-08-05T12:16:03.448Z,27.80
2022-08-05T12:18:40.705Z,27.80
2022-08-05T12:21:13.921Z,27.90
2022-08-05T12:23:52.226Z,27.90
2022-08-05T12:26:18.777Z,27.90
2022-08-05T12:28:45.378Z,28.00
2022-08-05T12:31:23.722Z,28.00
2022-08-05T12:34:01.085Z,28.10
2022-08-05T12:36:28.160Z,28.10
2022-08-05T12:38:55.352Z,28.10
2022-08-05T12:41:21.837Z,28.10
2022-08-05T12:44:11.496Z,28.20
2022-08-05T12:46:41.646Z,28.20
2022-08-05T12:49:14.569Z,28.20
2022-08-05T12:52:12.081Z,28.20
2022-08-05T12:54:31.607Z,28.30
2022-08-05T12:57:02.169Z,28.30
2022-08-05T13:00:08.431Z,28.30
2022-08-05T13:02:25.403Z,28.30
2022-08-05T13:04:56.926Z,28.40
2022-08-05T13:07:56.122Z,28.40
2022-08-05T13:10:13.444Z,28.40
2022-08-05T13:12:50.662Z,28.50
2022-08-05T13:15:41.106Z,28.50
2022-08-05T13:18:18.811Z,28.50
2022-08-05T13:20:47.128Z,28.60
2022-08-05T13:23:13.635Z,28.60
2022-08-05T13:25:52.133Z,28.70
2022-08-05T13:28:25.671Z,28.70
2022-08-05T13:30:53.457Z,28.70
2022-08-05T13:34:22.941Z,28.70
2022-08-05T13:36:07.027Z,28.80
2022-08-05T13:38:38.318Z,28.80
2022-08-05T13:41:09.779Z,28.80
2022-08-05T13:43:45.924Z,28.80
2022-08-05T13:46:50.960Z,28.90
2022-08-05T13:49:10.502Z,28.90
2022-08-05T13:51:40.194Z,29.00
2022-08-05T13:54:12.485Z,29.00
2022-08-05T13:56:45.209Z,29.00
2022-08-05T13:59:19.412Z,29.00
2022-08-05T14:01:56.570Z,29.10
2022-08-05T14:04:43.710Z,29.10
2022-08-05T14:07:25.743Z,29.10
2022-08-05T14:10:03.737Z,29.10
2022-08-05T14:12:32.527Z,29.20
2022-08-05T14:14:59.622Z,29.20
2022-08-05T14:17:26.749Z,29.20
2022-08-05T14:20:00.929Z,29.20
2022-08-05T14:22:30.167Z,29.20
2022-08-05T14:24:57.104Z,29.30
2022-08-05T14:27:23.590Z,29.30
2022-08-05T14:29:54.915Z,29.30
2022-08-05T14:32:26.584Z,29.30
2022-08-05T14:34:54.685Z,29.30
2022-08-05T14:37:24.241Z,29.30
2022-08-05T14:40:14.079Z,29.30
2022-08-05T14:42:43.049Z,29.40
2022-08-05T14:45:10.200Z,29.40
2022-08-05T14:48:02.993Z,29.40
2022-08-05T14:50:25.195Z,29.40
2022-08-05T14:52:56.896Z,29.40
2022-08-05T14:55:25.746Z,29.40
2022-08-05T14:57:56.520Z,29.50
2022-08-05T15:00:28.190Z,29.50
2022-08-05T15:02:56.302Z,29.50
2022-08-05T15:05:30.010Z,29.50
2022-08-05T15:08:15.883Z,29.50
2022-08-05T15:10:46.247Z,29.40
2022-08-05T15:13:13.408Z,29.40
2022-08-05T15:15:55.584Z,29.50
2022-08-05T15:18:23.452Z,29.50
2022-08-05T15:20:50.074Z,29.40
2022-08-05T15:23:17.664Z,29.40
2022-08-05T15:25:52.215Z,29.40
2022-08-05T15:28:20.493Z,29.40
2022-08-05T15:30:53.469Z,29.50
2022-08-05T15:33:56.719Z,29.40
2022-08-05T15:36:16.990Z,29.40
2022-08-05T15:38:50.429Z,29.40
2022-08-05T15:41:56.156Z,29.40
2022-08-05T15:44:23.270Z,29.40
2022-08-05T15:46:50.763Z,29.40
2022-08-05T15:49:27.339Z,29.40
2022-08-05T15:52:12.963Z,29.30
2022-08-05T15:54:43.004Z,29.30
2022-08-05T15:57:09.770Z,29.30
2022-08-05T15:59:38.248Z,29.30
2022-08-05T16:02:05.113Z,29.30
2022-08-05T16:04:41.234Z,29.30
2022-08-05T16:07:10.778Z,29.30
2022-08-05T16:09:37.774Z,29.30
2022-08-05T16:12:08.512Z,29.30
2022-08-05T16:14:34.991Z,29.30
2022-08-05T16:17:01.604Z,29.30
2022-08-05T16:20:04.288Z,29.20
2022-08-05T16:22:16.002Z,29.30
2022-08-05T16:24:52.152Z,29.20
2022-08-05T16:27:18.852Z,29.20
2022-08-05T16:29:50.752Z,29.10
2022-08-05T16:32:17.845Z,28.80
2022-08-05T16:34:55.376Z,28.80
2022-08-05T16:38:03.007Z,28.80
2022-08-05T16:40:09.799Z,28.90
2022-08-05T16:42:51.673Z,28.90
2022-08-05T16:46:05.995Z,28.90
2022-08-05T16:48:04.787Z,28.90
2022-08-05T16:50:31.280Z,28.90
2022-08-05T16:52:57.992Z,28.90
2022-08-05T16:55:28.151Z,28.80
2022-08-05T16:58:13.077Z,28.80
2022-08-05T17:00:40.749Z,28.80
2022-08-05T17:03:09.342Z,28.80
2022-08-05T17:05:50.274Z,28.80
2022-08-05T17:08:36.057Z,28.70
2022-08-05T17:11:08.210Z,28.70
2022-08-05T17:13:41.481Z,28.70
2022-08-05T17:16:27.984Z,28.70
2022-08-05T17:18:55.461Z,28.60
2022-08-05T17:21:23.716Z,28.60
2022-08-05T17:24:04.710Z,28.60
2022-08-05T17:26:34.941Z,28.50
2022-08-05T17:29:07.293Z,28.50
2022-08-05T17:31:56.918Z,28.50
2022-08-05T17:34:32.109Z,28.40
2022-08-05T17:36:59.722Z,28.40
2022-08-05T17:39:33.186Z,28.40
2022-08-05T17:42:20.212Z,28.30
2022-08-05T17:44:50.409Z,28.30
2022-08-05T17:47:18.944Z,28.20
2022-08-05T17:49:59.651Z,28.20
2022-08-05T17:52:31.503Z,28.10
2022-08-05T17:54:57.989Z,28.10
2022-08-05T17:57:24.649Z,28.00
2022-08-05T18:00:05.432Z,28.00
2022-08-05T18:02:33.044Z,27.90
2022-08-05T18:05:06.329Z,27.90
2022-08-05T18:07:41.331Z,27.80
2022-08-05T18:10:10.436Z,27.70
2022-08-05T18:12:37.545Z,27.70
2022-08-05T18:15:04.212Z,27.60
2022-08-05T18:17:58.856Z,27.60
2022-08-05T18:20:19.243Z,27.50
2022-08-05T18:22:54.502Z,27.50
2022-08-05T18:25:21.427Z,27.40
2022-08-05T18:27:52.447Z,27.30
2022-08-05T18:30:19.644Z,27.30
2022-08-05T18:32:59.950Z,27.20
2022-08-05T18:35:49.524Z,27.20
2022-08-05T18:38:13.808Z,27.10
2022-08-05T18:41:55.475Z,27.00
2022-08-05T18:43:37.881Z,27.00
2022-08-05T18:46:09.730Z,26.90
2022-08-05T18:48:36.771Z,26.90
2022-08-05T18:52:05.826Z,26.80
2022-08-05T18:54:13.244Z,26.70
2022-08-05T18:56:40.421Z,26.70
2022-08-05T18:59:43.523Z,26.60
2022-08-05T19:01:57.896Z,26.60
2022-08-05T19:04:25.348Z,26.50
2022-08-05T19:06:51.891Z,26.50
2022-08-05T19:09:20.626Z,26.40
2022-08-05T19:11:59.460Z,26.30
2022-08-05T19:14:52.192Z,26.30
2022-08-05T19:17:14.407Z,26.20
2022-08-05T19:19:46.425Z,26.20
2022-08-05T19:22:22.147Z,26.10
2022-08-05T19:24:55.759Z,26.10
2022-08-05T19:27:23.351Z,26.00
2022-08-05T19:29:50.039Z,26.00
2022-08-05T19:32:16.510Z,25.90
2022-08-05T19:34:54.544Z,25.80
2022-08-05T19:37:22.571Z,25.80
2022-08-05T19:40:01.891Z,25.70
2022-08-05T19:42:35.308Z,25.70
2022-08-05T19:45:02.526Z,25.60
2022-08-05T19:47:32.277Z,25.60
2022-08-05T19:50:01.110Z,25.50
2022-08-05T19:52:31.059Z,25.40
2022-08-05T19:55:08.699Z,25.40
2022-08-05T19:58:14.567Z,25.30
2022-08-05T20:00:40.437Z,25.30
2022-08-05T20:03:09.155Z,25.20
2022-08-05T20:05:43.039Z,25.10
2022-08-05T20:08:10.141Z,25.10
2022-08-05T20:10:36.633Z,25.00
2022-08-05T20:13:03.403Z,25.00
2022-08-05T20:15:52.935Z,24.90
2022-08-05T20:18:32.705Z,24.90
2022-08-05T20:21:01.903Z,24.80
2022-08-05T20:23:40.738Z,24.70
2022-08-05T20:26:22.127Z,24.70
2022-08-05T20:28:51.291Z,24.60
2022-08-05T20:31:21.695Z,24.50
2022-08-05T20:33:49.578Z,24.50
2022-08-05T20:36:16.363Z,24.40
2022-08-05T20:38:54.487Z,24.30
2022-08-05T20:41:27.556Z,24.30
2022-08-05T20:44:17.743Z,24.20
2022-08-05T20:46:46.552Z,24.10
2022-08-05T20:49:13.803Z,24.10
2022-08-05T20:51:40.295Z,24.00
2022-08-05T20:54:06.837Z,24.00
2022-08-05T20:56:42.487Z,23.90
2022-08-05T20:59:19.215Z,23.90
2022-08-05T21:01:53.712Z,23.80
2022-08-05T21:04:26.927Z,23.80
2022-08-05T21:06:54.083Z,23.70
2022-08-05T21:09:20.538Z,23.70
2022-08-05T21:12:07.498Z,23.60
2022-08-05T21:14:35.181Z,23.60
2022-08-05T21:17:05.497Z,23.50
2022-08-05T21:19:46.570Z,23.50
2022-08-05T21:22:15.062Z,23.40
2022-08-05T21:24:45.121Z,23.40
2022-08-05T21:27:15.607Z,23.30
2022-08-05T21:29:43.140Z,23.30
2022-08-05T21:32:17.168Z,23.20
2022-08-05T21:35:06.872Z,23.20
2022-08-05T21:37:33.172Z,23.10
2022-08-05T21:40:03.423Z,23.10
2022-08-05T21:42:43.907Z,23.00
2022-08-05T21:45:12.085Z,23.00
2022-08-05T21:47:57.111Z,22.90
2022-08-05T21:50:27.512Z,22.90
2022-08-05T21:52:59.075Z,22.80
2022-08-05T21:55:42.777Z,22.80
2022-08-05T21:58:19.424Z,22.80
2022-08-05T22:00:51.008Z,22.70
2022-08-05T22:03:17.991Z,22.70
2022-08-05T22:05:48.385Z,22.60
2022-08-05T22:08:22.500Z,22.60
2022-08-05T22:10:51.306Z,22.50
2022-08-05T22:14:19.954Z,22.40
2022-08-05T22:16:15.629Z,22.40
2022-08-05T22:18:49.115Z,22.30
2022-08-05T22:21:19.440Z,22.30
2022-08-05T22:24:09.049Z,22.30
2022-08-05T22:26:58.403Z,22.20
2022-08-05T22:29:30.862Z,22.20
2022-08-05T22:32:03.259Z,22.10
2022-08-05T22:34:30.290Z,22.10
2022-08-05T22:36:58.480Z,22.10
2022-08-05T22:39:28.603Z,22.00
2022-08-05T22:42:09.459Z,22.00
2022-08-05T22:44:38.463Z,21.90
2022-08-05T22:47:06.002Z,21.90
2022-08-05T22:50:18.233Z,21.80
2022-08-05T22:52:22.790Z,21.80
2022-08-05T22:54:57.224Z,21.80
2022-08-05T22:57:23.819Z,21.70
2022-08-05T22:59:50.334Z,21.70
2022-08-05T23:02:29.234Z,21.60
2022-08-05T23:04:56.995Z,21.60
2022-08-05T23:07:23.435Z,21.60
2022-08-05T23:09:57.783Z,21.50
2022-08-05T23:12:32.963Z,21.50
2022-08-05T23:15:01.283Z,21.50
2022-08-05T23:17:32.609Z,21.40
2022-08-05T23:20:02.397Z,21.40
2022-08-05T23:22:29.530Z,21.30
2022-08-05T23:24:57.350Z,21.30
2022-08-05T23:27:24.241Z,21.30
2022-08-05T23:29:58.023Z,21.20
2022-08-05T23:32:24.822Z,21.20
2022-08-05T23:34:53.416Z,21.10
2022-08-05T23:37:19.927Z,21.10
2022-08-05T23:39:53.982Z,21.10
2022-08-05T23:42:29.000Z,21.10
2022-08-05T23:44:55.902Z,21.00
2022-08-05T23:47:22.401Z,21.00
2022-08-05T23:49:52.029Z,21.00
2022-08-05T23:52:30.809Z,20.90
2022-08-05T23:55:02.672Z,20.90
2022-08-05T23:57:33.619Z,20.90
